sensor_id;sensor_type;location;lat;lon;timestamp;temperature;humidity
45989;DHT22;31718;50.762;12.764;2022-07-17T00:02:03;10.90;96.30
45989;DHT22;31718;50.762;12.764;2022-07-17T00:04:29;10.90;96.30
45989;DHT22;31718;50.762;12.764;2022-07-17T00:06:54;10.90;96.20
45989;DHT22;31718;50.762;12.764;2022-07-17T00:09:20;10.90;97.50
45989;DHT22;31718;50.762;12.764;2022-07-17T00:11:45;10.90;96.60
45989;DHT22;31718;50.762;12.764;2022-07-17T00:14:11;10.90;96.30
45989;DHT22;31718;50.762;12.764;2022-07-17T00:16:37;10.80;96.40
45989;DHT22;31718;50.762;12.764;2022-07-17T00:19:02;10.70;96.80
45989;DHT22;31718;50.762;12.764;2022-07-17T00:21:28;10.70;96.30
45989;DHT22;31718;50.762;12.764;2022-07-17T00:23:54;10.70;96.80
45989;DHT22;31718;50.762;12.764;2022-07-17T00:26:19;10.70;96.50
45989;DHT22;31718;50.762;12.764;2022-07-17T00:28:45;10.70;96.60
45989;DHT22;31718;50.762;12.764;2022-07-17T00:31:11;10.70;96.10
45989;DHT22;31718;50.762;12.764;2022-07-17T00:33:36;10.80;95.90
45989;DHT22;31718;50.762;12.764;2022-07-17T00:36:03;10.80;96.10
45989;DHT22;31718;50.762;12.764;2022-07-17T00:38:28;10.80;95.80
45989;DHT22;31718;50.762;12.764;2022-07-17T00:40:55;10.80;95.80
45989;DHT22;31718;50.762;12.764;2022-07-17T00:43:22;10.90;95.80
45989;DHT22;31718;50.762;12.764;2022-07-17T00:46:01;10.90;96.00
45989;DHT22;31718;50.762;12.764;2022-07-17T00:48:27;10.80;96.00
45989;DHT22;31718;50.762;12.764;2022-07-17T00:50:54;10.80;96.20
45989;DHT22;31718;50.762;12.764;2022-07-17T00:53:20;10.80;96.40
45989;DHT22;31718;50.762;12.764;2022-07-17T00:55:48;10.80;96.00
45989;DHT22;31718;50.762;12.764;2022-07-17T00:58:19;10.80;96.20
45989;DHT22;31718;50.762;12.764;2022-07-17T01:00:46;10.70;96.00
45989;DHT22;31718;50.762;12.764;2022-07-17T01:03:12;10.70;96.20
45989;DHT22;31718;50.762;12.764;2022-07-17T01:05:37;10.60;96.10
45989;DHT22;31718;50.762;12.764;2022-07-17T01:08:03;10.60;95.90
45989;DHT22;31718;50.762;12.764;2022-07-17T01:10:29;10.60;96.30
45989;DHT22;31718;50.762;12.764;2022-07-17T01:12:54;10.60;96.20
45989;DHT22;31718;50.762;12.764;2022-07-17T01:15:20;10.50;96.20
45989;DHT22;31718;50.762;12.764;2022-07-17T01:17:46;10.50;96.80
45989;DHT22;31718;50.762;12.764;2022-07-17T01:20:13;10.40;96.50
45989;DHT22;31718;50.762;12.764;2022-07-17T01:22:46;10.40;96.60
45989;DHT22;31718;50.762;12.764;2022-07-17T01:25:13;10.40;96.50
45989;DHT22;31718;50.762;12.764;2022-07-17T01:27:40;10.40;96.30
45989;DHT22;31718;50.762;12.764;2022-07-17T01:30:06;10.30;96.50
45989;DHT22;31718;50.762;12.764;2022-07-17T01:32:38;10.30;96.50
45989;DHT22;31718;50.762;12.764;2022-07-17T01:35:06;10.30;96.40
45989;DHT22;31718;50.762;12.764;2022-07-17T01:37:32;10.20;96.70
45989;DHT22;31718;50.762;12.764;2022-07-17T01:39:58;10.10;97.00
45989;DHT22;31718;50.762;12.764;2022-07-17T01:42:25;10.10;97.20
45989;DHT22;31718;50.762;12.764;2022-07-17T01:44:51;10.10;97.30
45989;DHT22;31718;50.762;12.764;2022-07-17T01:47:17;10.00;97.60
45989;DHT22;31718;50.762;12.764;2022-07-17T01:49:48;10.00;97.70
45989;DHT22;31718;50.762;12.764;2022-07-17T01:52:14;9.90;98.00
45989;DHT22;31718;50.762;12.764;2022-07-17T01:54:40;9.90;97.80
45989;DHT22;31718;50.762;12.764;2022-07-17T01:57:06;9.80;98.20
45989;DHT22;31718;50.762;12.764;2022-07-17T01:59:32;9.70;98.80
45989;DHT22;31718;50.762;12.764;2022-07-17T02:01:57;9.50;99.80
45989;DHT22;31718;50.762;12.764;2022-07-17T02:04:23;9.50;99.90
45989;DHT22;31718;50.762;12.764;2022-07-17T02:06:48;9.50;99.90
45989;DHT22;31718;50.762;12.764;2022-07-17T02:09:14;9.50;99.90
45989;DHT22;31718;50.762;12.764;2022-07-17T02:11:40;9.60;99.90
45989;DHT22;31718;50.762;12.764;2022-07-17T02:14:05;9.50;99.90
45989;DHT22;31718;50.762;12.764;2022-07-17T02:16:31;9.60;99.90
45989;DHT22;31718;50.762;12.764;2022-07-17T02:18:56;9.40;99.90
45989;DHT22;31718;50.762;12.764;2022-07-17T02:21:22;9.30;99.90
45989;DHT22;31718;50.762;12.764;2022-07-17T02:23:47;9.30;99.90
45989;DHT22;31718;50.762;12.764;2022-07-17T02:26:13;9.30;99.90
45989;DHT22;31718;50.762;12.764;2022-07-17T02:28:39;9.20;99.90
45989;DHT22;31718;50.762;12.764;2022-07-17T02:31:04;9.20;99.90
45989;DHT22;31718;50.762;12.764;2022-07-17T02:33:30;9.20;99.90
45989;DHT22;31718;50.762;12.764;2022-07-17T02:35:55;9.20;99.90
45989;DHT22;31718;50.762;12.764;2022-07-17T02:38:21;9.20;99.90
45989;DHT22;31718;50.762;12.764;2022-07-17T02:40:46;9.10;99.90
45989;DHT22;31718;50.762;12.764;2022-07-17T02:43:12;9.00;99.90
45989;DHT22;31718;50.762;12.764;2022-07-17T02:45:38;9.00;99.90
45989;DHT22;31718;50.762;12.764;2022-07-17T02:48:03;9.10;99.90
45989;DHT22;31718;50.762;12.764;2022-07-17T02:50:29;9.10;99.90
45989;DHT22;31718;50.762;12.764;2022-07-17T02:52:55;9.10;99.90
45989;DHT22;31718;50.762;12.764;2022-07-17T02:55:20;9.10;99.90
45989;DHT22;31718;50.762;12.764;2022-07-17T02:57:46;9.10;99.90
45989;DHT22;31718;50.762;12.764;2022-07-17T03:00:17;9.10;99.90
45989;DHT22;31718;50.762;12.764;2022-07-17T03:02:43;9.10;99.90
45989;DHT22;31718;50.762;12.764;2022-07-17T03:05:09;9.00;99.90
45989;DHT22;31718;50.762;12.764;2022-07-17T03:07:36;9.00;99.90
45989;DHT22;31718;50.762;12.764;2022-07-17T03:10:02;9.00;99.90
45989;DHT22;31718;50.762;12.764;2022-07-17T03:12:28;8.90;99.90
45989;DHT22;31718;50.762;12.764;2022-07-17T03:14:53;8.90;99.90
45989;DHT22;31718;50.762;12.764;2022-07-17T03:17:19;9.00;99.90
45989;DHT22;31718;50.762;12.764;2022-07-17T03:19:44;9.00;99.90
45989;DHT22;31718;50.762;12.764;2022-07-17T03:22:10;8.90;99.90
45989;DHT22;31718;50.762;12.764;2022-07-17T03:24:36;8.90;99.90
45989;DHT22;31718;50.762;12.764;2022-07-17T03:27:01;8.90;99.90
45989;DHT22;31718;50.762;12.764;2022-07-17T03:29:27;8.90;99.90
45989;DHT22;31718;50.762;12.764;2022-07-17T03:31:53;8.90;99.90
45989;DHT22;31718;50.762;12.764;2022-07-17T03:34:18;8.90;99.90
45989;DHT22;31718;50.762;12.764;2022-07-17T03:36:44;8.90;99.90
45989;DHT22;31718;50.762;12.764;2022-07-17T03:39:10;9.00;99.90
45989;DHT22;31718;50.762;12.764;2022-07-17T03:41:35;9.00;99.90
45989;DHT22;31718;50.762;12.764;2022-07-17T03:44:01;9.00;99.90
45989;DHT22;31718;50.762;12.764;2022-07-17T03:46:27;9.10;99.90
45989;DHT22;31718;50.762;12.764;2022-07-17T03:48:52;9.10;99.90
45989;DHT22;31718;50.762;12.764;2022-07-17T03:51:18;9.10;99.90
45989;DHT22;31718;50.762;12.764;2022-07-17T03:53:44;9.10;99.90
45989;DHT22;31718;50.762;12.764;2022-07-17T03:56:09;9.10;99.90
45989;DHT22;31718;50.762;12.764;2022-07-17T03:58:35;9.20;99.90
45989;DHT22;31718;50.762;12.764;2022-07-17T04:01:01;9.30;99.90
45989;DHT22;31718;50.762;12.764;2022-07-17T04:03:27;9.50;99.90
45989;DHT22;31718;50.762;12.764;2022-07-17T04:05:53;9.70;99.90
45989;DHT22;31718;50.762;12.764;2022-07-17T04:08:18;9.90;99.90
45989;DHT22;31718;50.762;12.764;2022-07-17T04:10:44;10.00;99.90
45989;DHT22;31718;50.762;12.764;2022-07-17T04:13:10;10.20;99.90
45989;DHT22;31718;50.762;12.764;2022-07-17T04:15:36;10.40;99.90
45989;DHT22;31718;50.762;12.764;2022-07-17T04:18:21;10.50;99.90
45989;DHT22;31718;50.762;12.764;2022-07-17T04:20:48;10.70;99.90
45989;DHT22;31718;50.762;12.764;2022-07-17T04:23:14;10.90;99.90
45989;DHT22;31718;50.762;12.764;2022-07-17T04:25:40;11.00;99.90
45989;DHT22;31718;50.762;12.764;2022-07-17T04:28:07;11.20;99.90
45989;DHT22;31718;50.762;12.764;2022-07-17T04:30:33;11.50;99.90
45989;DHT22;31718;50.762;12.764;2022-07-17T04:32:59;11.80;99.90
45989;DHT22;31718;50.762;12.764;2022-07-17T04:35:25;11.90;99.90
45989;DHT22;31718;50.762;12.764;2022-07-17T04:37:50;12.10;99.90
45989;DHT22;31718;50.762;12.764;2022-07-17T04:40:16;12.30;99.90
45989;DHT22;31718;50.762;12.764;2022-07-17T04:42:42;12.50;99.90
45989;DHT22;31718;50.762;12.764;2022-07-17T04:45:09;12.70;99.90
45989;DHT22;31718;50.762;12.764;2022-07-17T04:47:35;13.00;99.90
45989;DHT22;31718;50.762;12.764;2022-07-17T04:50:01;13.20;99.90
45989;DHT22;31718;50.762;12.764;2022-07-17T04:52:27;13.40;99.90
45989;DHT22;31718;50.762;12.764;2022-07-17T04:54:52;13.60;99.90
45989;DHT22;31718;50.762;12.764;2022-07-17T04:57:18;13.80;99.90
45989;DHT22;31718;50.762;12.764;2022-07-17T04:59:44;13.90;99.20
45989;DHT22;31718;50.762;12.764;2022-07-17T05:02:09;14.10;99.60
45989;DHT22;31718;50.762;12.764;2022-07-17T05:04:35;14.30;99.30
45989;DHT22;31718;50.762;12.764;2022-07-17T05:07:01;14.50;99.00
45989;DHT22;31718;50.762;12.764;2022-07-17T05:09:27;14.80;98.50
45989;DHT22;31718;50.762;12.764;2022-07-17T05:11:52;15.00;98.00
45989;DHT22;31718;50.762;12.764;2022-07-17T05:14:18;15.30;97.90
45989;DHT22;31718;50.762;12.764;2022-07-17T05:16:43;15.30;96.90
45989;DHT22;31718;50.762;12.764;2022-07-17T05:19:09;15.50;97.00
45989;DHT22;31718;50.762;12.764;2022-07-17T05:21:35;15.60;96.20
45989;DHT22;31718;50.762;12.764;2022-07-17T05:24:00;15.70;96.40
45989;DHT22;31718;50.762;12.764;2022-07-17T05:26:26;15.80;95.60
45989;DHT22;31718;50.762;12.764;2022-07-17T05:28:52;15.80;95.80
45989;DHT22;31718;50.762;12.764;2022-07-17T05:31:17;15.90;95.70
45989;DHT22;31718;50.762;12.764;2022-07-17T05:33:43;16.10;95.70
45989;DHT22;31718;50.762;12.764;2022-07-17T05:36:09;16.20;95.30
45989;DHT22;31718;50.762;12.764;2022-07-17T05:38:34;16.40;95.60
45989;DHT22;31718;50.762;12.764;2022-07-17T05:41:00;16.50;95.30
45989;DHT22;31718;50.762;12.764;2022-07-17T05:43:26;16.80;96.20
45989;DHT22;31718;50.762;12.764;2022-07-17T05:45:58;17.00;95.60
45989;DHT22;31718;50.762;12.764;2022-07-17T05:48:25;17.10;94.40
45989;DHT22;31718;50.762;12.764;2022-07-17T05:50:51;17.10;95.60
45989;DHT22;31718;50.762;12.764;2022-07-17T05:53:17;17.30;94.60
45989;DHT22;31718;50.762;12.764;2022-07-17T05:55:42;17.50;95.20
45989;DHT22;31718;50.762;12.764;2022-07-17T05:58:08;17.60;94.30
45989;DHT22;31718;50.762;12.764;2022-07-17T06:00:34;17.80;94.40
45989;DHT22;31718;50.762;12.764;2022-07-17T06:03:00;18.00;92.90
45989;DHT22;31718;50.762;12.764;2022-07-17T06:05:26;18.00;91.50
45989;DHT22;31718;50.762;12.764;2022-07-17T06:07:52;18.20;92.50
45989;DHT22;31718;50.762;12.764;2022-07-17T06:10:18;18.50;93.30
45989;DHT22;31718;50.762;12.764;2022-07-17T06:12:44;18.60;90.60
45989;DHT22;31718;50.762;12.764;2022-07-17T06:15:10;18.70;88.90
45989;DHT22;31718;50.762;12.764;2022-07-17T06:17:35;18.70;88.80
45989;DHT22;31718;50.762;12.764;2022-07-17T06:20:01;18.60;89.00
45989;DHT22;31718;50.762;12.764;2022-07-17T06:22:27;18.70;87.50
45989;DHT22;31718;50.762;12.764;2022-07-17T06:24:52;18.80;90.50
45989;DHT22;31718;50.762;12.764;2022-07-17T06:27:18;18.90;89.00
45989;DHT22;31718;50.762;12.764;2022-07-17T06:29:44;18.80;86.90
45989;DHT22;31718;50.762;12.764;2022-07-17T06:32:11;18.90;90.10
45989;DHT22;31718;50.762;12.764;2022-07-17T06:34:37;18.80;91.00
45989;DHT22;31718;50.762;12.764;2022-07-17T06:37:03;19.00;89.50
45989;DHT22;31718;50.762;12.764;2022-07-17T06:39:28;19.20;88.40
45989;DHT22;31718;50.762;12.764;2022-07-17T06:41:54;19.10;89.90
45989;DHT22;31718;50.762;12.764;2022-07-17T06:44:20;19.40;89.90
45989;DHT22;31718;50.762;12.764;2022-07-17T06:46:45;19.50;86.20
45989;DHT22;31718;50.762;12.764;2022-07-17T06:49:11;19.40;89.70
45989;DHT22;31718;50.762;12.764;2022-07-17T06:51:36;19.60;85.30
45989;DHT22;31718;50.762;12.764;2022-07-17T06:54:02;19.70;87.80
45989;DHT22;31718;50.762;12.764;2022-07-17T06:56:28;19.80;86.20
45989;DHT22;31718;50.762;12.764;2022-07-17T06:58:53;20.00;87.10
45989;DHT22;31718;50.762;12.764;2022-07-17T07:01:19;20.30;90.30
45989;DHT22;31718;50.762;12.764;2022-07-17T07:03:44;20.20;85.90
45989;DHT22;31718;50.762;12.764;2022-07-17T07:06:10;20.40;84.80
45989;DHT22;31718;50.762;12.764;2022-07-17T07:08:36;20.50;88.10
45989;DHT22;31718;50.762;12.764;2022-07-17T07:11:02;20.50;83.90
45989;DHT22;31718;50.762;12.764;2022-07-17T07:13:28;20.70;87.50
45989;DHT22;31718;50.762;12.764;2022-07-17T07:15:54;20.60;88.90
45989;DHT22;31718;50.762;12.764;2022-07-17T07:18:20;20.80;83.30
45989;DHT22;31718;50.762;12.764;2022-07-17T07:20:46;21.10;86.10
45989;DHT22;31718;50.762;12.764;2022-07-17T07:23:11;21.30;86.40
45989;DHT22;31718;50.762;12.764;2022-07-17T07:25:37;21.60;82.70
45989;DHT22;31718;50.762;12.764;2022-07-17T07:28:03;21.80;85.40
45989;DHT22;31718;50.762;12.764;2022-07-17T07:30:29;21.70;80.10
45989;DHT22;31718;50.762;12.764;2022-07-17T07:32:55;21.70;79.90
45989;DHT22;31718;50.762;12.764;2022-07-17T07:35:20;21.80;81.90
45989;DHT22;31718;50.762;12.764;2022-07-17T07:37:46;21.50;78.60
45989;DHT22;31718;50.762;12.764;2022-07-17T07:40:12;21.60;80.60
45989;DHT22;31718;50.762;12.764;2022-07-17T07:42:38;21.50;82.90
45989;DHT22;31718;50.762;12.764;2022-07-17T07:45:04;21.50;84.30
45989;DHT22;31718;50.762;12.764;2022-07-17T07:47:30;21.70;77.00
45989;DHT22;31718;50.762;12.764;2022-07-17T07:49:55;21.60;85.30
45989;DHT22;31718;50.762;12.764;2022-07-17T07:52:21;21.60;77.80
45989;DHT22;31718;50.762;12.764;2022-07-17T07:54:46;21.80;82.70
45989;DHT22;31718;50.762;12.764;2022-07-17T07:57:12;21.60;75.60
45989;DHT22;31718;50.762;12.764;2022-07-17T07:59:38;21.80;81.70
45989;DHT22;31718;50.762;12.764;2022-07-17T08:02:04;22.10;84.00
45989;DHT22;31718;50.762;12.764;2022-07-17T08:04:30;22.30;80.60
45989;DHT22;31718;50.762;12.764;2022-07-17T08:06:56;22.30;79.40
45989;DHT22;31718;50.762;12.764;2022-07-17T08:09:22;22.20;77.90
45989;DHT22;31718;50.762;12.764;2022-07-17T08:11:48;22.30;76.90
45989;DHT22;31718;50.762;12.764;2022-07-17T08:14:14;22.10;75.30
45989;DHT22;31718;50.762;12.764;2022-07-17T08:16:39;22.10;76.90
45989;DHT22;31718;50.762;12.764;2022-07-17T08:19:05;22.20;76.30
45989;DHT22;31718;50.762;12.764;2022-07-17T08:21:31;21.80;75.30
45989;DHT22;31718;50.762;12.764;2022-07-17T08:23:57;22.00;75.10
45989;DHT22;31718;50.762;12.764;2022-07-17T08:26:22;22.10;79.60
45989;DHT22;31718;50.762;12.764;2022-07-17T08:28:48;22.20;74.50
45989;DHT22;31718;50.762;12.764;2022-07-17T08:31:14;22.00;79.50
45989;DHT22;31718;50.762;12.764;2022-07-17T08:33:39;22.20;75.80
45989;DHT22;31718;50.762;12.764;2022-07-17T08:36:05;22.00;75.70
45989;DHT22;31718;50.762;12.764;2022-07-17T08:38:31;21.50;72.90
45989;DHT22;31718;50.762;12.764;2022-07-17T08:40:57;21.80;81.40
45989;DHT22;31718;50.762;12.764;2022-07-17T08:43:25;21.60;76.40
45989;DHT22;31718;50.762;12.764;2022-07-17T08:45:51;21.70;77.30
45989;DHT22;31718;50.762;12.764;2022-07-17T08:48:17;21.70;80.50
45989;DHT22;31718;50.762;12.764;2022-07-17T08:50:45;21.60;72.30
45989;DHT22;31718;50.762;12.764;2022-07-17T08:53:11;21.10;71.40
45989;DHT22;31718;50.762;12.764;2022-07-17T08:55:37;21.00;74.70
45989;DHT22;31718;50.762;12.764;2022-07-17T08:58:02;21.20;75.90
45989;DHT22;31718;50.762;12.764;2022-07-17T09:00:30;21.40;73.80
45989;DHT22;31718;50.762;12.764;2022-07-17T09:03:04;21.50;75.60
45989;DHT22;31718;50.762;12.764;2022-07-17T09:05:32;21.30;77.00
45989;DHT22;31718;50.762;12.764;2022-07-17T09:07:59;21.20;72.50
45989;DHT22;31718;50.762;12.764;2022-07-17T09:13:00;21.40;74.90
45989;DHT22;31718;50.762;12.764;2022-07-17T09:15:26;21.40;73.70
45989;DHT22;31718;50.762;12.764;2022-07-17T09:17:54;21.00;73.60
45989;DHT22;31718;50.762;12.764;2022-07-17T09:20:21;21.40;75.00
45989;DHT22;31718;50.762;12.764;2022-07-17T09:22:58;21.10;74.30
45989;DHT22;31718;50.762;12.764;2022-07-17T09:28:01;21.70;74.60
45989;DHT22;31718;50.762;12.764;2022-07-17T09:30:27;21.80;74.60
45989;DHT22;31718;50.762;12.764;2022-07-17T09:32:55;21.90;77.40
45989;DHT22;31718;50.762;12.764;2022-07-17T09:35:22;21.90;75.50
45989;DHT22;31718;50.762;12.764;2022-07-17T09:37:47;22.10;73.50
45989;DHT22;31718;50.762;12.764;2022-07-17T09:40:16;22.20;69.90
45989;DHT22;31718;50.762;12.764;2022-07-17T09:43:02;22.10;72.20
45989;DHT22;31718;50.762;12.764;2022-07-17T09:45:28;22.00;71.70
45989;DHT22;31718;50.762;12.764;2022-07-17T09:47:55;22.10;74.30
45989;DHT22;31718;50.762;12.764;2022-07-17T09:50:22;22.00;74.70
45989;DHT22;31718;50.762;12.764;2022-07-17T09:52:49;21.90;71.00
45989;DHT22;31718;50.762;12.764;2022-07-17T09:55:18;21.80;72.70
45989;DHT22;31718;50.762;12.764;2022-07-17T09:57:47;21.90;74.70
45989;DHT22;31718;50.762;12.764;2022-07-17T10:00:13;21.90;69.60
45989;DHT22;31718;50.762;12.764;2022-07-17T10:02:43;21.90;70.90
45989;DHT22;31718;50.762;12.764;2022-07-17T10:05:13;21.90;71.10
45989;DHT22;31718;50.762;12.764;2022-07-17T10:07:44;21.80;73.30
45989;DHT22;31718;50.762;12.764;2022-07-17T10:10:15;21.70;69.60
45989;DHT22;31718;50.762;12.764;2022-07-17T10:12:43;21.50;74.20
45989;DHT22;31718;50.762;12.764;2022-07-17T10:15:10;21.50;71.30
45989;DHT22;31718;50.762;12.764;2022-07-17T10:17:36;21.50;77.40
45989;DHT22;31718;50.762;12.764;2022-07-17T10:20:03;21.70;74.20
45989;DHT22;31718;50.762;12.764;2022-07-17T10:22:43;21.80;70.90
45989;DHT22;31718;50.762;12.764;2022-07-17T10:25:13;21.90;75.00
45989;DHT22;31718;50.762;12.764;2022-07-17T10:27:51;21.90;70.60
45989;DHT22;31718;50.762;12.764;2022-07-17T10:30:25;21.80;69.60
45989;DHT22;31718;50.762;12.764;2022-07-17T10:32:57;21.80;69.60
45989;DHT22;31718;50.762;12.764;2022-07-17T10:35:24;21.90;70.60
45989;DHT22;31718;50.762;12.764;2022-07-17T10:37:51;21.90;69.50
45989;DHT22;31718;50.762;12.764;2022-07-17T10:40:22;21.70;67.70
45989;DHT22;31718;50.762;12.764;2022-07-17T10:45:40;21.90;73.60
45989;DHT22;31718;50.762;12.764;2022-07-17T10:48:16;22.00;70.10
45989;DHT22;31718;50.762;12.764;2022-07-17T10:50:49;21.90;67.10
45989;DHT22;31718;50.762;12.764;2022-07-17T10:53:28;21.90;70.70
45989;DHT22;31718;50.762;12.764;2022-07-17T10:55:59;22.20;69.70
45989;DHT22;31718;50.762;12.764;2022-07-17T10:58:29;22.30;68.20
45989;DHT22;31718;50.762;12.764;2022-07-17T11:01:15;22.10;68.20
45989;DHT22;31718;50.762;12.764;2022-07-17T11:03:43;22.20;69.10
45989;DHT22;31718;50.762;12.764;2022-07-17T11:06:19;22.50;73.80
45989;DHT22;31718;50.762;12.764;2022-07-17T11:08:46;22.70;69.90
45989;DHT22;31718;50.762;12.764;2022-07-17T11:11:12;22.90;67.30
45989;DHT22;31718;50.762;12.764;2022-07-17T11:13:38;22.90;69.80
45989;DHT22;31718;50.762;12.764;2022-07-17T11:16:04;22.80;67.60
45989;DHT22;31718;50.762;12.764;2022-07-17T11:18:30;22.40;63.00
45989;DHT22;31718;50.762;12.764;2022-07-17T11:20:58;22.30;66.80
45989;DHT22;31718;50.762;12.764;2022-07-17T11:23:29;22.40;65.50
45989;DHT22;31718;50.762;12.764;2022-07-17T11:26:01;22.40;64.00
45989;DHT22;31718;50.762;12.764;2022-07-17T11:30:54;22.20;66.60
45989;DHT22;31718;50.762;12.764;2022-07-17T11:33:19;22.30;67.50
45989;DHT22;31718;50.762;12.764;2022-07-17T11:35:48;22.20;66.30
45989;DHT22;31718;50.762;12.764;2022-07-17T11:38:14;22.10;63.60
45989;DHT22;31718;50.762;12.764;2022-07-17T11:40:50;22.10;66.90
45989;DHT22;31718;50.762;12.764;2022-07-17T11:43:16;22.30;68.10
45989;DHT22;31718;50.762;12.764;2022-07-17T11:45:42;22.40;70.00
45989;DHT22;31718;50.762;12.764;2022-07-17T11:48:08;22.50;68.60
45989;DHT22;31718;50.762;12.764;2022-07-17T11:50:34;22.80;71.50
45989;DHT22;31718;50.762;12.764;2022-07-17T11:53:05;23.00;68.20
45989;DHT22;31718;50.762;12.764;2022-07-17T11:55:37;22.60;65.30
45989;DHT22;31718;50.762;12.764;2022-07-17T11:58:03;22.40;63.60
45989;DHT22;31718;50.762;12.764;2022-07-17T12:00:29;22.50;66.20
45989;DHT22;31718;50.762;12.764;2022-07-17T12:03:00;22.60;67.70
45989;DHT22;31718;50.762;12.764;2022-07-17T12:05:27;22.80;69.80
45989;DHT22;31718;50.762;12.764;2022-07-17T12:07:53;23.00;71.30
45989;DHT22;31718;50.762;12.764;2022-07-17T12:10:21;23.00;65.70
45989;DHT22;31718;50.762;12.764;2022-07-17T12:15:44;22.80;65.00
45989;DHT22;31718;50.762;12.764;2022-07-17T12:18:29;22.90;61.00
45989;DHT22;31718;50.762;12.764;2022-07-17T12:21:01;22.90;64.10
45989;DHT22;31718;50.762;12.764;2022-07-17T12:23:39;23.00;64.10
45989;DHT22;31718;50.762;12.764;2022-07-17T12:28:30;23.00;65.30
45989;DHT22;31718;50.762;12.764;2022-07-17T12:30:56;23.00;64.00
45989;DHT22;31718;50.762;12.764;2022-07-17T12:33:22;23.00;64.30
45989;DHT22;31718;50.762;12.764;2022-07-17T12:35:47;23.00;65.30
45989;DHT22;31718;50.762;12.764;2022-07-17T12:38:13;23.00;67.10
45989;DHT22;31718;50.762;12.764;2022-07-17T12:40:38;23.00;66.40
45989;DHT22;31718;50.762;12.764;2022-07-17T12:43:04;23.00;65.30
45989;DHT22;31718;50.762;12.764;2022-07-17T12:45:30;22.90;67.00
45989;DHT22;31718;50.762;12.764;2022-07-17T12:47:55;22.80;67.70
45989;DHT22;31718;50.762;12.764;2022-07-17T12:50:21;22.70;63.60
45989;DHT22;31718;50.762;12.764;2022-07-17T12:52:46;22.50;63.60
45989;DHT22;31718;50.762;12.764;2022-07-17T12:55:12;22.40;64.20
45989;DHT22;31718;50.762;12.764;2022-07-17T12:57:37;22.30;62.90
45989;DHT22;31718;50.762;12.764;2022-07-17T13:00:03;22.00;60.90
45989;DHT22;31718;50.762;12.764;2022-07-17T13:02:29;22.00;64.10
45989;DHT22;31718;50.762;12.764;2022-07-17T13:04:55;21.90;62.10
45989;DHT22;31718;50.762;12.764;2022-07-17T13:07:21;21.80;61.40
45989;DHT22;31718;50.762;12.764;2022-07-17T13:09:47;21.90;64.10
45989;DHT22;31718;50.762;12.764;2022-07-17T13:12:12;21.80;60.30
45989;DHT22;31718;50.762;12.764;2022-07-17T13:14:38;21.90;64.60
45989;DHT22;31718;50.762;12.764;2022-07-17T13:17:03;21.90;62.60
45989;DHT22;31718;50.762;12.764;2022-07-17T13:19:29;21.90;64.80
45989;DHT22;31718;50.762;12.764;2022-07-17T13:21:55;21.90;61.80
45989;DHT22;31718;50.762;12.764;2022-07-17T13:24:20;22.00;64.30
45989;DHT22;31718;50.762;12.764;2022-07-17T13:26:46;21.80;59.90
45989;DHT22;31718;50.762;12.764;2022-07-17T13:29:12;21.80;60.90
45989;DHT22;31718;50.762;12.764;2022-07-17T13:31:38;21.60;59.90
45989;DHT22;31718;50.762;12.764;2022-07-17T13:34:03;21.70;63.80
45989;DHT22;31718;50.762;12.764;2022-07-17T13:36:29;21.70;61.00
45989;DHT22;31718;50.762;12.764;2022-07-17T13:38:55;21.70;63.20
45989;DHT22;31718;50.762;12.764;2022-07-17T13:41:20;21.70;60.70
45989;DHT22;31718;50.762;12.764;2022-07-17T13:43:47;21.70;61.20
45989;DHT22;31718;50.762;12.764;2022-07-17T13:46:13;21.70;61.40
45989;DHT22;31718;50.762;12.764;2022-07-17T13:48:38;21.80;62.10
45989;DHT22;31718;50.762;12.764;2022-07-17T13:51:05;21.80;62.40
45989;DHT22;31718;50.762;12.764;2022-07-17T13:53:31;21.80;61.50
45989;DHT22;31718;50.762;12.764;2022-07-17T13:55:57;21.80;60.50
45989;DHT22;31718;50.762;12.764;2022-07-17T13:58:23;21.90;61.80
45989;DHT22;31718;50.762;12.764;2022-07-17T14:00:49;21.90;58.50
45989;DHT22;31718;50.762;12.764;2022-07-17T14:03:14;21.80;58.30
45989;DHT22;31718;50.762;12.764;2022-07-17T14:05:40;21.70;57.60
45989;DHT22;31718;50.762;12.764;2022-07-17T14:08:06;21.60;58.50
45989;DHT22;31718;50.762;12.764;2022-07-17T14:10:32;21.70;60.40
45989;DHT22;31718;50.762;12.764;2022-07-17T14:12:57;21.70;58.70
45989;DHT22;31718;50.762;12.764;2022-07-17T14:15:24;21.80;59.90
45989;DHT22;31718;50.762;12.764;2022-07-17T14:17:49;21.70;57.70
45989;DHT22;31718;50.762;12.764;2022-07-17T14:20:15;21.80;60.90
45989;DHT22;31718;50.762;12.764;2022-07-17T14:22:41;21.80;58.80
45989;DHT22;31718;50.762;12.764;2022-07-17T14:25:06;21.80;57.80
45989;DHT22;31718;50.762;12.764;2022-07-17T14:27:32;21.90;56.10
45989;DHT22;31718;50.762;12.764;2022-07-17T14:29:58;22.00;57.00
45989;DHT22;31718;50.762;12.764;2022-07-17T14:32:23;21.90;56.20
45989;DHT22;31718;50.762;12.764;2022-07-17T14:34:49;22.00;56.90
45989;DHT22;31718;50.762;12.764;2022-07-17T14:37:15;22.00;56.80
45989;DHT22;31718;50.762;12.764;2022-07-17T14:39:40;21.90;55.70
45989;DHT22;31718;50.762;12.764;2022-07-17T14:42:06;22.00;56.60
45989;DHT22;31718;50.762;12.764;2022-07-17T14:44:31;22.00;56.00
45989;DHT22;31718;50.762;12.764;2022-07-17T14:46:58;22.00;58.10
45989;DHT22;31718;50.762;12.764;2022-07-17T14:49:27;22.00;58.30
45989;DHT22;31718;50.762;12.764;2022-07-17T14:51:53;22.10;58.90
45989;DHT22;31718;50.762;12.764;2022-07-17T14:54:19;22.10;58.30
45989;DHT22;31718;50.762;12.764;2022-07-17T14:56:45;22.10;58.70
45989;DHT22;31718;50.762;12.764;2022-07-17T14:59:10;22.10;58.80
45989;DHT22;31718;50.762;12.764;2022-07-17T15:01:36;22.10;60.60
45989;DHT22;31718;50.762;12.764;2022-07-17T15:04:01;22.10;59.20
45989;DHT22;31718;50.762;12.764;2022-07-17T15:06:27;22.10;58.30
45989;DHT22;31718;50.762;12.764;2022-07-17T15:08:53;22.10;58.40
45989;DHT22;31718;50.762;12.764;2022-07-17T15:11:18;22.10;59.50
45989;DHT22;31718;50.762;12.764;2022-07-17T15:13:44;22.20;53.80
45989;DHT22;31718;50.762;12.764;2022-07-17T15:16:09;22.20;59.20
45989;DHT22;31718;50.762;12.764;2022-07-17T15:18:35;22.20;58.30
45989;DHT22;31718;50.762;12.764;2022-07-17T15:21:00;22.20;56.30
45989;DHT22;31718;50.762;12.764;2022-07-17T15:23:26;22.20;59.20
45989;DHT22;31718;50.762;12.764;2022-07-17T15:25:52;22.20;57.30
45989;DHT22;31718;50.762;12.764;2022-07-17T15:28:17;22.20;56.80
45989;DHT22;31718;50.762;12.764;2022-07-17T15:30:43;22.20;56.80